createdAt,value
2018-04-25T00:00:28.583Z,60.48
2018-04-25T00:02:58.113Z,61.80
2018-04-25T00:05:24.426Z,62.98
2018-04-25T00:07:50.793Z,61.76
2018-04-25T00:10:17.279Z,61.03
2018-04-25T00:12:43.583Z,63.00
2018-04-25T00:15:09.924Z,63.78
2018-04-25T00:17:36.415Z,65.81
2018-04-25T00:20:02.787Z,66.37
2018-04-25T00:22:29.124Z,65.52
2018-04-25T00:24:55.443Z,65.64
2018-04-25T00:27:21.974Z,64.43
2018-04-25T00:29:48.340Z,66.47
2018-04-25T00:32:14.634Z,65.44
2018-04-25T00:34:40.916Z,65.09
2018-04-25T00:37:07.289Z,66.63
2018-04-25T00:39:33.567Z,66.91
2018-04-25T00:41:59.895Z,67.42
2018-04-25T00:44:26.457Z,67.52
2018-04-25T00:46:52.778Z,67.71
2018-04-25T00:49:19.188Z,66.98
2018-04-25T00:51:45.464Z,65.35
2018-04-25T00:54:11.843Z,65.09
2018-04-25T00:56:38.169Z,63.62
2018-04-25T00:59:04.859Z,61.54
2018-04-25T01:01:31.179Z,58.64
2018-04-25T01:03:57.518Z,59.09
2018-04-25T01:06:23.934Z,64.02
2018-04-25T01:08:50.274Z,65.17
2018-04-25T01:11:16.638Z,65.76
2018-04-25T01:13:42.960Z,65.70
2018-04-25T01:16:09.291Z,65.68
2018-04-25T01:18:35.617Z,65.99
2018-04-25T01:21:02.116Z,64.87
2018-04-25T01:23:28.542Z,65.08
2018-04-25T01:26:11.582Z,64.23
2018-04-25T01:28:39.890Z,64.92
2018-04-25T01:31:06.223Z,64.56
2018-04-25T01:33:34.331Z,63.72
2018-04-25T01:36:00.734Z,63.70
2018-04-25T01:38:27.816Z,65.42
2018-04-25T01:40:54.188Z,66.44
2018-04-25T01:43:20.531Z,65.95
2018-04-25T01:45:59.471Z,65.52
2018-04-25T01:48:31.900Z,65.52
2018-04-25T01:50:58.382Z,65.56
2018-04-25T01:53:36.958Z,66.45
2018-04-25T01:56:15.415Z,65.98
2018-04-25T01:58:54.065Z,66.11
2018-04-25T02:01:20.099Z,66.63
2018-04-25T02:04:01.391Z,66.51
2018-04-25T02:06:27.667Z,66.96
2018-04-25T02:08:54.014Z,67.26
2018-04-25T02:11:20.427Z,67.07
2018-04-25T02:13:46.729Z,66.45
2018-04-25T02:16:13.126Z,64.76
2018-04-25T02:18:39.412Z,65.78
2018-04-25T02:21:05.690Z,65.96
2018-04-25T02:23:38.291Z,66.62
2018-04-25T02:26:04.563Z,66.95
2018-04-25T02:28:30.816Z,66.58
2018-04-25T02:30:57.199Z,67.03
2018-04-25T02:33:23.483Z,67.56
2018-04-25T02:35:49.858Z,68.32
2018-04-25T02:38:16.148Z,67.77
2018-04-25T02:40:42.414Z,67.89
2018-04-25T02:43:08.747Z,69.22
2018-04-25T02:45:35.014Z,70.10
2018-04-25T02:48:01.389Z,69.73
2018-04-25T02:50:27.661Z,68.81
2018-04-25T02:52:53.936Z,69.49
2018-04-25T02:55:20.257Z,68.96
2018-04-25T02:57:46.537Z,69.23
2018-04-25T03:00:12.823Z,69.19
2018-04-25T03:02:39.166Z,69.69
2018-04-25T03:05:05.547Z,69.65
2018-04-25T03:07:31.843Z,69.71
2018-04-25T03:09:58.203Z,70.05
2018-04-25T03:12:24.475Z,69.93
2018-04-25T03:14:50.740Z,70.33
2018-04-25T03:17:17.132Z,70.47
2018-04-25T03:19:43.411Z,71.59
2018-04-25T03:22:09.730Z,73.24
2018-04-25T03:24:35.993Z,73.59
2018-04-25T03:27:02.250Z,73.23
2018-04-25T03:29:28.871Z,73.18
2018-04-25T03:31:55.147Z,72.64
2018-04-25T03:34:21.535Z,72.63
2018-04-25T03:36:47.802Z,71.68
2018-04-25T03:39:14.065Z,71.39
2018-04-25T03:41:40.480Z,71.97
2018-04-25T03:44:06.808Z,71.60
2018-04-25T03:46:33.067Z,73.65
2018-04-25T03:48:59.353Z,74.69
2018-04-25T03:51:25.677Z,74.11
2018-04-25T03:53:52.044Z,73.75
2018-04-25T03:56:18.331Z,73.50
2018-04-25T03:58:44.632Z,73.28
2018-04-25T04:01:10.946Z,72.43
2018-04-25T04:03:37.228Z,72.03
2018-04-25T04:06:03.478Z,71.03
2018-04-25T04:08:29.908Z,72.38
2018-04-25T04:10:56.172Z,75.27
2018-04-25T04:13:22.444Z,76.24
2018-04-25T04:15:48.825Z,75.38
2018-04-25T04:18:15.083Z,74.28
2018-04-25T04:20:41.374Z,73.72
2018-04-25T04:23:07.750Z,74.42
2018-04-25T04:25:34.027Z,75.56
2018-04-25T04:28:00.347Z,75.29
2018-04-25T04:33:21.280Z,74.52
2018-04-25T04:35:47.557Z,73.56
2018-04-25T04:38:13.831Z,73.11
2018-04-25T04:40:40.139Z,72.66
2018-04-25T04:43:06.441Z,72.21
2018-04-25T04:45:32.725Z,71.26
2018-04-25T04:47:59.031Z,70.75
2018-04-25T04:50:25.318Z,70.60
2018-04-25T04:52:51.603Z,70.17
2018-04-25T04:55:18.278Z,69.39
2018-04-25T04:57:44.540Z,68.78
2018-04-25T05:00:10.814Z,68.03
2018-04-25T05:02:37.127Z,67.51
2018-04-25T05:05:03.405Z,68.02
2018-04-25T05:07:29.691Z,67.04
2018-04-25T05:09:55.977Z,66.53
2018-04-25T05:12:22.265Z,66.19
2018-04-25T05:14:48.533Z,63.71
2018-04-25T05:17:15.034Z,62.00
2018-04-25T05:19:41.357Z,60.64
2018-04-25T05:22:07.636Z,60.14
2018-04-25T05:24:33.990Z,61.66
2018-04-25T05:27:00.283Z,62.91
2018-04-25T05:29:26.576Z,62.26
2018-04-25T05:31:53.095Z,60.31
2018-04-25T05:34:19.374Z,60.02
2018-04-25T05:36:45.743Z,59.60
2018-04-25T05:39:12.023Z,60.08
2018-04-25T05:41:38.296Z,59.14
2018-04-25T05:44:04.646Z,59.15
2018-04-25T05:46:31.027Z,59.97
2018-04-25T05:48:57.239Z,59.15
2018-04-25T05:51:23.859Z,58.99
2018-04-25T05:53:50.144Z,58.60
2018-04-25T05:56:16.416Z,58.03
2018-04-25T05:58:42.890Z,56.20
2018-04-25T06:01:09.359Z,56.18
2018-04-25T06:03:35.650Z,55.25
2018-04-25T06:06:01.940Z,54.54
2018-04-25T06:08:28.360Z,54.55
2018-04-25T06:10:54.690Z,54.49
2018-04-25T06:13:20.957Z,55.08
2018-04-25T06:15:47.320Z,55.07
2018-04-25T06:18:13.603Z,54.63
2018-04-25T06:20:39.892Z,55.24
2018-04-25T06:23:06.233Z,54.78
2018-04-25T06:25:32.522Z,54.70
2018-04-25T06:27:58.831Z,53.31
2018-04-25T06:30:25.216Z,51.76
2018-04-25T06:32:51.641Z,50.57
2018-04-25T06:35:17.966Z,51.47
2018-04-25T06:37:44.247Z,50.47
2018-04-25T06:40:10.582Z,50.25
2018-04-25T06:42:36.847Z,50.42
2018-04-25T06:45:03.277Z,50.20
2018-04-25T06:47:29.720Z,50.41
2018-04-25T06:49:56.000Z,47.80
2018-04-25T06:52:22.277Z,47.29
2018-04-25T06:54:48.780Z,46.01
2018-04-25T06:57:15.063Z,46.29
2018-04-25T06:59:41.334Z,48.50
2018-04-25T07:02:07.637Z,48.27
2018-04-25T07:04:33.916Z,48.63
2018-04-25T07:07:00.301Z,47.42
2018-04-25T07:09:26.662Z,48.12
2018-04-25T07:11:52.968Z,47.15
2018-04-25T07:14:19.234Z,47.02
2018-04-25T07:16:45.611Z,47.49
2018-04-25T07:19:11.904Z,45.98
2018-04-25T07:21:38.173Z,46.20
2018-04-25T07:24:04.614Z,45.32
2018-04-25T07:26:30.879Z,46.17
2018-04-25T07:28:57.213Z,43.83
2018-04-25T07:31:23.499Z,42.95
2018-04-25T07:33:49.871Z,42.28
2018-04-25T07:36:16.148Z,42.89
2018-04-25T07:38:42.435Z,43.58
2018-04-25T07:41:11.975Z,42.13
2018-04-25T07:43:38.240Z,43.87
2018-04-25T07:46:04.535Z,43.23
2018-04-25T07:48:30.888Z,42.20
2018-04-25T07:50:57.252Z,41.22
2018-04-25T07:53:23.613Z,42.41
2018-04-25T07:55:49.915Z,43.99
2018-04-25T07:58:16.214Z,41.37
2018-04-25T08:00:42.491Z,40.76
2018-04-25T08:03:08.773Z,39.90
2018-04-25T08:05:35.167Z,41.38
2018-04-25T08:08:01.534Z,42.70
2018-04-25T08:10:27.806Z,41.89
2018-04-25T08:13:06.364Z,41.21
2018-04-25T08:15:44.899Z,39.69
2018-04-25T08:18:23.298Z,40.01
2018-04-25T08:21:13.556Z,38.50
2018-04-25T08:23:39.847Z,37.22
2018-04-25T08:26:06.116Z,37.79
2018-04-25T08:28:32.472Z,38.80
2018-04-25T08:30:58.732Z,39.72
2018-04-25T08:33:25.092Z,39.89
2018-04-25T08:35:51.366Z,39.89
2018-04-25T08:38:17.627Z,39.10
2018-04-25T08:40:43.898Z,38.07
2018-04-25T08:43:10.359Z,37.15
2018-04-25T08:45:36.624Z,37.13
2018-04-25T08:48:02.978Z,37.69
2018-04-25T08:50:29.262Z,36.36
2018-04-25T08:52:55.547Z,37.14
2018-04-25T08:55:22.086Z,36.99
2018-04-25T08:57:48.369Z,36.53
2018-04-25T09:00:14.642Z,37.28
2018-04-25T09:02:40.940Z,37.00
2018-04-25T09:05:07.263Z,35.22
2018-04-25T09:07:33.541Z,35.01
2018-04-25T09:09:59.855Z,33.69
2018-04-25T09:12:26.137Z,29.49
2018-04-25T09:14:52.411Z,29.39
2018-04-25T09:17:18.763Z,29.62
2018-04-25T09:19:45.630Z,29.36
2018-04-25T09:22:12.464Z,28.31
2018-04-25T09:24:38.988Z,27.48
2018-04-25T09:27:05.371Z,27.33
2018-04-25T09:29:31.701Z,27.00
2018-04-25T09:31:57.980Z,27.14
2018-04-25T09:34:24.292Z,27.64
2018-04-25T09:36:50.603Z,26.42
2018-04-25T09:39:16.877Z,24.19
2018-04-25T09:41:43.160Z,25.28
2018-04-25T09:44:09.702Z,24.69
2018-04-25T09:46:35.975Z,23.71
2018-04-25T09:49:02.253Z,24.66
2018-04-25T09:51:28.773Z,25.63
2018-04-25T09:53:55.079Z,27.34
2018-04-25T09:56:22.149Z,23.81
2018-04-25T09:58:48.691Z,24.15
2018-04-25T10:01:20.869Z,24.61
2018-04-25T10:03:47.232Z,24.63
2018-04-25T10:06:13.498Z,25.78
2018-04-25T10:08:39.796Z,24.09
2018-04-25T10:11:08.763Z,24.20
2018-04-25T10:13:35.042Z,24.15
2018-04-25T10:16:01.349Z,24.09
2018-04-25T10:18:27.612Z,23.76
2018-04-25T10:20:53.894Z,23.04
2018-04-25T10:23:21.101Z,22.66
2018-04-25T10:25:47.389Z,23.98
2018-04-25T10:28:13.670Z,23.50
2018-04-25T10:30:43.000Z,23.28
2018-04-25T10:33:09.264Z,21.72
2018-04-25T10:35:35.548Z,21.76
2018-04-25T10:38:01.865Z,19.93
2018-04-25T10:40:28.308Z,20.06
2018-04-25T10:42:55.341Z,20.21
2018-04-25T10:45:21.707Z,20.88
2018-04-25T10:47:47.985Z,22.41
2018-04-25T10:50:14.250Z,21.71
2018-04-25T10:52:40.647Z,22.58
2018-04-25T10:55:10.183Z,22.96
2018-04-25T10:57:36.443Z,22.38
2018-04-25T11:00:02.821Z,21.92
2018-04-25T11:02:29.213Z,22.33
2018-04-25T11:04:55.514Z,22.24
2018-04-25T11:07:21.856Z,22.00
2018-04-25T11:09:48.275Z,22.68
2018-04-25T11:12:14.543Z,22.48
2018-04-25T11:14:40.807Z,22.55
2018-04-25T11:17:07.107Z,22.03
2018-04-25T11:19:33.385Z,20.76
2018-04-25T11:21:59.756Z,22.76
2018-04-25T11:24:26.185Z,22.04
2018-04-25T11:26:52.506Z,22.07
2018-04-25T11:29:18.864Z,20.97
2018-04-25T11:31:45.133Z,22.41
2018-04-25T11:36:37.665Z,21.29
2018-04-25T11:39:03.990Z,22.00
2018-04-25T11:41:30.381Z,22.11
2018-04-25T11:43:56.671Z,21.27
2018-04-25T11:46:22.997Z,20.76
2018-04-25T11:48:49.370Z,20.67
2018-04-25T11:51:15.648Z,19.74
2018-04-25T11:53:42.018Z,19.21
2018-04-25T11:56:08.293Z,19.08
2018-04-25T11:58:34.561Z,19.03
2018-04-25T12:01:00.872Z,18.03
2018-04-25T12:03:27.138Z,20.95
2018-04-25T12:05:53.418Z,21.90
2018-04-25T12:08:19.786Z,22.48
2018-04-25T12:10:46.161Z,23.23
2018-04-25T12:13:12.848Z,24.48
2018-04-25T12:15:39.152Z,25.62
2018-04-25T12:18:05.413Z,24.97
2018-04-25T12:20:34.829Z,27.52
2018-04-25T12:23:01.092Z,30.93
2018-04-25T12:25:27.350Z,32.58
2018-04-25T12:27:53.663Z,33.40
2018-04-25T12:30:19.938Z,33.86
2018-04-25T12:32:46.284Z,34.11
2018-04-25T12:35:12.607Z,34.52
2018-04-25T12:37:38.922Z,35.21
2018-04-25T12:40:05.246Z,35.08
2018-04-25T12:42:31.514Z,35.07
2018-04-25T12:44:57.778Z,34.57
2018-04-25T12:47:24.092Z,34.75
2018-04-25T12:49:50.378Z,33.87
2018-04-25T12:52:16.641Z,34.08
2018-04-25T12:54:43.001Z,34.68
2018-04-25T12:57:09.271Z,34.71
2018-04-25T12:59:35.568Z,34.47
2018-04-25T13:02:02.250Z,35.12
2018-04-25T13:04:28.509Z,35.58
2018-04-25T13:06:54.844Z,35.22
2018-04-25T13:09:21.104Z,34.71
2018-04-25T13:11:47.583Z,34.89
2018-04-25T13:14:13.855Z,35.38
2018-04-25T13:16:40.121Z,36.15
2018-04-25T13:19:06.783Z,36.56
2018-04-25T13:21:33.045Z,36.34
2018-04-25T13:23:59.465Z,37.19
2018-04-25T13:26:25.939Z,37.50
2018-04-25T13:28:52.215Z,37.56
2018-04-25T13:31:18.579Z,38.28
2018-04-25T13:33:44.910Z,38.22
2018-04-25T13:36:11.370Z,39.02
2018-04-25T13:38:37.627Z,39.71
2018-04-25T13:41:03.959Z,39.68
2018-04-25T13:43:30.232Z,39.81
2018-04-25T13:45:56.527Z,39.96
2018-04-25T13:48:22.878Z,37.54
2018-04-25T13:50:49.195Z,38.55
2018-04-25T13:53:15.518Z,38.69
2018-04-25T13:55:41.855Z,38.61
2018-04-25T13:58:08.124Z,37.45
2018-04-25T14:00:34.684Z,37.77
2018-04-25T14:03:00.959Z,36.03
2018-04-25T14:05:27.351Z,36.89
2018-04-25T14:07:53.643Z,35.75
2018-04-25T14:10:19.929Z,35.26
2018-04-25T14:12:46.386Z,35.31
2018-04-25T14:15:12.708Z,33.79
2018-04-25T14:17:38.971Z,33.90
2018-04-25T14:20:05.574Z,34.37
2018-04-25T14:22:31.846Z,33.88
2018-04-25T14:24:58.135Z,34.94
2018-04-25T14:27:24.522Z,38.07
2018-04-25T14:29:50.819Z,40.29
2018-04-25T14:32:17.084Z,41.74
2018-04-25T14:34:43.396Z,43.69
2018-04-25T14:37:09.685Z,44.21
2018-04-25T14:39:35.952Z,45.40
2018-04-25T14:42:02.760Z,46.36
2018-04-25T14:44:29.033Z,47.21
2018-04-25T14:46:55.308Z,48.93
2018-04-25T14:49:21.686Z,50.20
2018-04-25T14:51:48.014Z,50.54
2018-04-25T14:54:14.290Z,50.20
2018-04-25T14:56:40.615Z,50.82
2018-04-25T14:59:06.982Z,50.48
2018-04-25T15:01:33.373Z,51.04
2018-04-25T15:03:59.618Z,50.33
2018-04-25T15:06:25.917Z,50.62
2018-04-25T15:08:52.203Z,50.32
2018-04-25T15:11:18.503Z,49.96
2018-04-25T15:13:45.431Z,50.07
2018-04-25T15:16:11.709Z,50.15
2018-04-25T15:18:38.058Z,50.18
2018-04-25T15:21:04.475Z,50.92
2018-04-25T15:23:30.819Z,49.77
2018-04-25T15:25:57.081Z,53.75
2018-04-25T15:28:23.394Z,53.87
2018-04-25T15:30:49.675Z,58.88
2018-04-25T15:33:15.935Z,62.31
2018-04-25T15:35:42.296Z,64.90
2018-04-25T15:38:08.669Z,66.70
2018-04-25T15:40:35.043Z,66.77
2018-04-25T15:43:01.323Z,68.01
2018-04-25T15:45:27.618Z,65.94
2018-04-25T15:47:53.938Z,64.07
2018-04-25T15:50:20.217Z,62.85
2018-04-25T15:52:46.483Z,65.69
2018-04-25T15:55:13.206Z,65.35
2018-04-25T15:57:39.480Z,63.29
2018-04-25T16:00:05.827Z,64.33
2018-04-25T16:02:32.095Z,66.27
2018-04-25T16:04:58.458Z,63.52
2018-04-25T16:07:24.738Z,65.22
2018-04-25T16:09:51.040Z,64.64
2018-04-25T16:12:17.485Z,65.87
2018-04-25T16:14:43.708Z,64.55
2018-04-25T16:17:10.131Z,65.36
2018-04-25T16:19:36.491Z,62.21
2018-04-25T16:22:02.872Z,62.79
2018-04-25T16:24:29.150Z,64.32
2018-04-25T16:26:55.435Z,65.00
2018-04-25T16:29:21.743Z,64.56
2018-04-25T16:31:48.036Z,65.22
2018-04-25T16:34:14.321Z,65.99
2018-04-25T16:36:40.766Z,65.25
2018-04-25T16:39:07.639Z,66.91
2018-04-25T16:41:34.042Z,67.11
2018-04-25T16:44:00.324Z,67.44
2018-04-25T16:46:26.674Z,64.98
2018-04-25T16:48:53.041Z,66.52
2018-04-25T16:51:19.491Z,67.78
2018-04-25T16:53:46.071Z,68.17
2018-04-25T16:56:15.233Z,68.92
2018-04-25T16:58:42.849Z,68.53
2018-04-25T17:01:09.129Z,68.24
2018-04-25T17:03:35.410Z,67.20
2018-04-25T17:06:01.742Z,68.87
2018-04-25T17:08:28.021Z,69.11
2018-04-25T17:10:54.412Z,69.45
2018-04-25T17:13:22.972Z,69.60
2018-04-25T17:15:51.306Z,69.64
2018-04-25T17:18:17.593Z,69.02
2018-04-25T17:20:43.864Z,70.68
2018-04-25T17:23:10.202Z,70.75
2018-04-25T17:25:36.500Z,72.43
2018-04-25T17:28:02.796Z,70.82
2018-04-25T17:30:29.138Z,72.16
2018-04-25T17:32:55.435Z,72.54
2018-04-25T17:35:21.721Z,72.98
2018-04-25T17:37:48.121Z,72.67
2018-04-25T17:40:15.137Z,72.93
2018-04-25T17:42:41.446Z,73.19
2018-04-25T17:45:07.892Z,72.81
2018-04-25T17:47:34.229Z,72.60
2018-04-25T17:50:00.556Z,72.83
2018-04-25T17:52:26.904Z,73.91
2018-04-25T17:54:53.197Z,74.15
2018-04-25T17:57:19.482Z,74.22
2018-04-25T17:59:45.985Z,74.60
2018-04-25T18:02:12.294Z,73.76
2018-04-25T18:04:38.579Z,74.38
2018-04-25T18:07:05.266Z,73.85
2018-04-25T18:09:31.571Z,74.14
2018-04-25T18:11:57.858Z,74.87
2018-04-25T18:14:24.284Z,74.79
2018-04-25T18:16:50.623Z,74.48
2018-04-25T18:19:16.925Z,74.65
2018-04-25T18:21:43.356Z,73.67
2018-04-25T18:24:09.645Z,74.93
2018-04-25T18:26:35.924Z,75.25
2018-04-25T18:29:02.316Z,74.76
2018-04-25T18:31:28.622Z,75.84
2018-04-25T18:33:54.902Z,75.88
2018-04-25T18:36:21.406Z,75.74
2018-04-25T18:38:47.844Z,75.84
2018-04-25T18:41:15.140Z,75.33
2018-04-25T18:43:41.444Z,75.22
2018-04-25T18:46:07.743Z,75.81
2018-04-25T18:48:34.136Z,75.26
2018-04-25T18:51:00.492Z,75.31
2018-04-25T18:53:26.780Z,75.43
2018-04-25T18:55:53.064Z,75.41
2018-04-25T18:58:19.632Z,75.58
2018-04-25T19:00:45.903Z,75.60
2018-04-25T19:03:12.281Z,75.90
2018-04-25T19:05:38.704Z,76.75
2018-04-25T19:08:05.008Z,76.48
2018-04-25T19:10:31.308Z,76.88
2018-04-25T19:12:57.634Z,76.85
2018-04-25T19:15:24.050Z,76.18
2018-04-25T19:17:50.343Z,76.81
2018-04-25T19:20:16.623Z,77.71
2018-04-25T19:22:42.984Z,78.98
2018-04-25T19:25:09.254Z,77.86
2018-04-25T19:27:35.530Z,78.03
2018-04-25T19:30:01.957Z,77.50
2018-04-25T19:32:31.372Z,77.36
2018-04-25T19:34:57.699Z,78.78
2018-04-25T19:37:23.987Z,77.86
2018-04-25T19:39:50.277Z,77.63
2018-04-25T19:42:16.772Z,77.50
2018-04-25T19:44:43.003Z,77.57
2018-04-25T19:47:09.339Z,77.41
2018-04-25T19:49:35.655Z,77.39
2018-04-25T19:52:01.949Z,77.55
2018-04-25T19:54:28.219Z,77.33
2018-04-25T19:56:54.623Z,77.53
2018-04-25T19:59:21.176Z,77.77
2018-04-25T20:01:47.460Z,78.61
2018-04-25T20:04:13.724Z,78.48
2018-04-25T20:06:40.139Z,79.26
2018-04-25T20:09:06.432Z,78.63
2018-04-25T20:11:32.713Z,78.39
2018-04-25T20:13:59.040Z,79.52
2018-04-25T20:16:25.307Z,80.89
2018-04-25T20:18:51.584Z,82.32
2018-04-25T20:21:18.833Z,82.61
2018-04-25T20:23:45.114Z,83.05
2018-04-25T20:26:11.467Z,83.92
2018-04-25T20:28:37.752Z,83.90
2018-04-25T20:31:04.048Z,83.50
2018-04-25T20:33:30.380Z,83.18
2018-04-25T20:35:56.698Z,81.86
2018-04-25T20:38:22.990Z,82.43
2018-04-25T20:40:49.916Z,82.29
2018-04-25T20:43:16.350Z,81.83
2018-04-25T20:45:42.622Z,81.28
2018-04-25T20:48:08.991Z,81.14
2018-04-25T20:50:35.266Z,80.95
2018-04-25T20:53:01.542Z,80.41
2018-04-25T20:55:27.871Z,80.37
2018-04-25T20:57:54.165Z,79.69
2018-04-25T21:00:20.452Z,80.06
2018-04-25T21:02:46.812Z,79.10
2018-04-25T21:05:13.134Z,79.79
2018-04-25T21:07:39.441Z,80.17
2018-04-25T21:10:05.816Z,79.52
2018-04-25T21:12:32.091Z,79.02
2018-04-25T21:14:58.398Z,78.24
2018-04-25T21:17:24.729Z,79.54
2018-04-25T21:19:51.027Z,79.75
2018-04-25T21:22:17.293Z,79.24
2018-04-25T21:24:43.639Z,80.78
2018-04-25T21:27:09.959Z,80.36
2018-04-25T21:29:36.273Z,80.01
2018-04-25T21:32:02.791Z,80.23
2018-04-25T21:34:29.115Z,80.15
2018-04-25T21:36:55.386Z,80.26
2018-04-25T21:39:21.813Z,80.52
2018-04-25T21:41:48.087Z,80.40
2018-04-25T21:44:14.360Z,81.23
2018-04-25T21:46:40.689Z,79.40
2018-04-25T21:49:07.038Z,79.16
2018-04-25T21:51:33.345Z,78.73
2018-04-25T21:53:59.658Z,78.12
2018-04-25T21:56:26.030Z,77.99
2018-04-25T21:58:52.329Z,79.00
2018-04-25T22:01:18.605Z,80.33
2018-04-25T22:03:45.315Z,80.61
2018-04-25T22:06:11.594Z,81.08
2018-04-25T22:08:37.870Z,81.70
2018-04-25T22:11:04.195Z,82.36
2018-04-25T22:13:30.523Z,83.91
2018-04-25T22:15:56.815Z,84.87
2018-04-25T22:18:23.168Z,85.50
2018-04-25T22:20:49.434Z,85.48
2018-04-25T22:23:15.743Z,85.75
2018-04-25T22:25:42.280Z,85.85
2018-04-25T22:28:11.280Z,86.04
2018-04-25T22:30:37.621Z,85.70
2018-04-25T22:33:03.893Z,84.78
2018-04-25T22:35:30.159Z,84.24
2018-04-25T22:37:56.659Z,82.92
2018-04-25T22:40:23.003Z,83.44
2018-04-25T22:42:49.275Z,81.69
2018-04-25T22:45:15.580Z,81.37
2018-04-25T22:47:41.849Z,81.04
2018-04-25T22:50:08.123Z,81.36
2018-04-25T22:52:34.434Z,81.52
2018-04-25T22:55:00.730Z,82.00
2018-04-25T22:57:27.019Z,82.40
2018-04-25T22:59:54.391Z,83.26
2018-04-25T23:02:20.703Z,83.67
2018-04-25T23:04:46.969Z,84.26
2018-04-25T23:07:13.335Z,84.93
2018-04-25T23:09:39.594Z,84.52
2018-04-25T23:12:05.919Z,84.66
2018-04-25T23:14:32.191Z,84.28
2018-04-25T23:16:58.460Z,84.55
2018-04-25T23:19:24.782Z,83.78
2018-04-25T23:21:51.076Z,83.26
2018-04-25T23:24:17.353Z,83.77
2018-04-25T23:26:43.712Z,83.99
2018-04-25T23:29:10.025Z,84.43
2018-04-25T23:31:36.301Z,84.89
2018-04-25T23:34:02.694Z,83.62
2018-04-25T23:36:29.016Z,82.79
2018-04-25T23:38:55.296Z,83.50
2018-04-25T23:41:21.631Z,84.43
2018-04-25T23:43:47.961Z,84.86
2018-04-25T23:46:14.292Z,84.19
2018-04-25T23:48:40.559Z,83.78
2018-04-25T23:51:06.881Z,84.17
2018-04-25T23:53:33.155Z,83.31
2018-04-25T23:55:59.477Z,82.88
2018-04-25T23:58:25.777Z,82.33
